KSFO/SFO METAR and TAF weather

Enter ICAO airport designator
Station Type Date Time Source
KSFO METAR 2019/10/21 04:56 UTC NOAA

KSFO 210456Z 28013KT 10SM CLR 14/11 A3011 RMK AO2 SLP197 T01440106


Station Type Date Time Source
KSFO Decoded METAR 2019/10/21 04:56 UTC NOAA

SAN FRANCISCO INTERNATIONAL AIRPORT , CA, United States (KSFO) 37-37N 122-22W 26M
Oct 21, 2019 - 12:56 AM EDT / 2019.10.21 0456 UTC
Wind: from the W (280 degrees) at 15 MPH (13 KT):0
Visibility: 10 mile(s):0
Sky conditions: clear
Temperature: 57.9 F (14.4 C)
Dew Point: 51.1 F (10.6 C)
Relative Humidity: 77%
Pressure (altimeter): 30.11 in. Hg (1019 hPa)
ob: KSFO 210456Z 28013KT 10SM CLR 14/11 A3011 RMK AO2 SLP197 T01440106
cycle: 5

Station Type Date Time Source
KSFO TAF 2019/10/21 03:51 UTC NOAA

TAF
AMD KSFO 210247Z 2103/2206 28015G20KT P6SM SKC
FM210500 29010KT P6SM SKC
FM210800 03005KT P6SM SKC
FM211600 28007KT P6SM SKC
FM212200 30011KT P6SM SKC
FM220400 30006KT P6SM SKC

Example: see airport list